»·PEaware :: AMX482 KLAX-KLAS

AMX482 :: KLAX-KLAS

FLIGHT INFORMATION

Flight Status: Arrived
Operator:
Aeromexico
More flights by this operator :: More flights under this callsign
Pilot: Alfredo R. (12181)
Aircraft: BOEING 737-800
(B738)
More flights by this aircraft type
Origin: KLAX Los Angeles Intl
United States
Destination: KLAS McCarran Intl
United States
More flights between these airports :: More routes between these airports
Route: +ORCKA2 MISEN KEPEC6
File this flight plan on PilotEdge
Remarks:
Altitude:
(Current/Filed)
29,000ft
Speed:
(Current/Filed)
440kts
Departed: 24-Nov-17 08:04 PM
Arrived: 24-Nov-17 08:52 PM
Distance/Time
Traveled:
206nm/0:48
Distance/Time
To Go:
Arrived

Flight Plot

Page will automatically refresh every two minutes.

Flight plan parsing failed; only flown route is shown


Map Options




Map Legend


Flown Route
Filed Route
Departure Airport
Arrival Airport
Navaid (VOR, NDB)
Fix

Horizontal Profiles

Position Reports

Time Latitude Longitude Heading Altitude Ground
Speed
24-Nov-17 19:43 33.941038 -118.405045 85 132ft 0kts
24-Nov-17 19:44 33.941038 -118.405045 85 132ft 0kts
24-Nov-17 19:45 33.941038 -118.405045 85 132ft 0kts
24-Nov-17 19:46 33.941038 -118.405045 85 132ft 0kts
24-Nov-17 19:47 33.941038 -118.405045 85 132ft 0kts
24-Nov-17 19:48 33.941038 -118.405045 85 132ft 0kts
24-Nov-17 19:49 33.941038 -118.405045 85 132ft 0kts
24-Nov-17 19:50 33.941038 -118.405045 85 132ft 0kts
24-Nov-17 19:51 33.941022 -118.405277 85 132ft 1kts
24-Nov-17 19:52 33.941041 -118.405624 138 132ft 0kts
24-Nov-17 19:53 33.941077 -118.405651 167 132ft 0kts
24-Nov-17 19:54 33.941077 -118.405651 167 132ft 0kts
24-Nov-17 19:55 33.941077 -118.405651 167 132ft 0kts
24-Nov-17 19:56 33.941077 -118.405651 167 132ft 0kts
24-Nov-17 19:57 33.941074 -118.405651 167 132ft 0kts
24-Nov-17 19:58 33.940491 -118.405541 172 132ft 3kts
24-Nov-17 19:59 33.939930 -118.405459 174 132ft 0kts
24-Nov-17 20:00 33.939930 -118.405459 174 132ft 0kts
24-Nov-17 20:01 33.938752 -118.405284 174 132ft 7kts
24-Nov-17 20:02 33.938430 -118.403386 82 133ft 8kts
24-Nov-17 20:03 33.938720 -118.400522 83 132ft 12kts
24-Nov-17 20:04 33.939145 -118.396405 83 133ft 14kts
24-Nov-17 20:05 33.939711 -118.390871 82 133ft 16kts
24-Nov-17 20:06 33.940243 -118.385642 83 133ft 16kts
24-Nov-17 20:07 33.940556 -118.380380 131 132ft 9kts
24-Nov-17 20:08 33.939649 -118.382002 263 133ft 13kts
24-Nov-17 20:09 33.938165 -118.396758 263 133ft 102kts
24-Nov-17 20:10 33.933010 -118.451261 260 1364ft 190kts
24-Nov-17 20:11 33.915163 -118.513007 250 3063ft 223kts
24-Nov-17 20:12 33.881104 -118.579375 203 5563ft 255kts
24-Nov-17 20:13 33.827880 -118.538634 96 8145ft 287kts
24-Nov-17 20:14 33.871001 -118.464066 35 10334ft 307kts
24-Nov-17 20:15 33.948637 -118.414797 25 12036ft 337kts
24-Nov-17 20:16 33.999277 -118.323091 63 14129ft 356kts
24-Nov-17 20:17 34.050974 -118.224429 52 16134ft 372kts
24-Nov-17 20:18 34.109330 -118.121383 52 18353ft 387kts
24-Nov-17 20:19 34.169943 -118.013584 52 20536ft 398kts
24-Nov-17 20:20 34.232223 -117.902416 52 22508ft 408kts
24-Nov-17 20:21 34.296757 -117.787412 52 24166ft 423kts
24-Nov-17 20:22 34.362934 -117.670889 50 25854ft 429kts
24-Nov-17 20:23 34.432114 -117.553411 50 27622ft 429kts
24-Nov-17 20:24 34.500680 -117.436766 50 29100ft 432kts
24-Nov-17 20:25 34.573186 -117.313682 50 29108ft 472kts
24-Nov-17 20:26 34.651693 -117.180588 50 29091ft 492kts
24-Nov-17 20:27 34.731236 -117.045902 50 29100ft 491kts
24-Nov-17 20:28 34.810926 -116.911254 50 29046ft 492kts
24-Nov-17 20:29 34.890475 -116.777141 50 29020ft 493kts
24-Nov-17 20:30 34.967022 -116.643929 51 27735ft 474kts
24-Nov-17 20:31 35.041072 -116.512475 51 26252ft 462kts
24-Nov-17 20:32 35.112762 -116.390929 41 24690ft 426kts
24-Nov-17 20:33 35.193841 -116.288314 41 23234ft 422kts
24-Nov-17 20:34 35.273949 -116.186841 40 21712ft 409kts
24-Nov-17 20:35 35.351927 -116.088222 40 20210ft 400kts
24-Nov-17 20:36 35.427805 -115.992330 40 18715ft 390kts
24-Nov-17 20:37 35.501918 -115.898774 40 17224ft 380kts
24-Nov-17 20:38 35.574243 -115.807541 41 15717ft 364kts
24-Nov-17 20:39 35.642017 -115.722144 42 14171ft 338kts
24-Nov-17 20:40 35.704989 -115.642287 43 13019ft 312kts
24-Nov-17 20:41 35.772497 -115.578176 9 13043ft 309kts
24-Nov-17 20:42 35.856532 -115.570000 359 13028ft 307kts
24-Nov-17 20:43 35.940807 -115.565221 2 12665ft 307kts
24-Nov-17 20:44 35.993959 -115.491629 66 11795ft 296kts
24-Nov-17 20:45 36.023040 -115.400560 67 10857ft 282kts
24-Nov-17 20:46 36.026040 -115.305532 95 9987ft 279kts
24-Nov-17 20:47 36.019256 -115.212263 95 9071ft 271kts
24-Nov-17 20:48 36.013240 -115.124334 95 8096ft 250kts
24-Nov-17 20:49 36.007898 -115.040868 95 7382ft 246kts
24-Nov-17 20:50 36.002993 -114.959402 95 6433ft 228kts
24-Nov-17 20:51 36.006539 -114.884502 47 5516ft 226kts
24-Nov-17 20:52 36.055124 -114.899388 302 4956ft 214kts
24-Nov-17 20:53 36.076955 -114.965843 270 4916ft 217kts
24-Nov-17 20:54 36.072630 -115.040083 276 4137ft 206kts
24-Nov-17 20:55 36.073634 -115.105117 272 2662ft 181kts
24-Nov-17 20:56 36.073634 -115.151633 271 2148ft 48kts
24-Nov-17 20:57 36.074960 -115.155640 304 2149ft 7kts
24-Nov-17 20:58 36.076895 -115.158027 328 2148ft 10kts
24-Nov-17 20:59 36.078023 -115.156077 90 2148ft 9kts
24-Nov-17 21:00 36.078013 -115.152489 90 2148ft 11kts
24-Nov-17 21:01 36.077858 -115.148601 94 2149ft 11kts
24-Nov-17 21:02 36.077607 -115.144540 94 2148ft 12kts
24-Nov-17 21:03 36.077499 -115.140168 89 2149ft 13kts
24-Nov-17 21:04 36.078228 -115.138765 267 2149ft 7kts
24-Nov-17 21:05 36.079790 -115.139531 355 2148ft 1kts
24-Nov-17 21:06 36.079839 -115.139536 355 2148ft 0kts

Navigation Log

Ident Type
Flight plan parsing failed, navigation log unavailable